createdAt,value
2023-05-04T00:00:39.414Z,83.79
2023-05-04T00:03:07.164Z,84.13
2023-05-04T00:05:34.758Z,84.67
2023-05-04T00:08:02.156Z,84.16
2023-05-04T00:10:29.520Z,85.07
2023-05-04T00:12:57.057Z,83.89
2023-05-04T00:15:24.575Z,82.81
2023-05-04T00:17:52.103Z,82.32
2023-05-04T00:20:19.492Z,81.82
2023-05-04T00:22:46.883Z,82.47
2023-05-04T00:25:14.227Z,82.98
2023-05-04T00:27:41.593Z,82.75
2023-05-04T00:30:09.362Z,82.80
2023-05-04T00:32:36.766Z,83.45
2023-05-04T00:35:04.384Z,82.77
2023-05-04T00:37:31.774Z,82.79
2023-05-04T00:39:59.199Z,83.07
2023-05-04T00:42:26.764Z,84.83
2023-05-04T00:44:54.902Z,84.00
2023-05-04T00:47:23.105Z,83.34
2023-05-04T00:49:52.196Z,84.40
2023-05-04T00:52:20.886Z,84.75
2023-05-04T00:54:48.446Z,85.21
2023-05-04T00:57:16.222Z,86.49
2023-05-04T00:59:43.733Z,85.76
2023-05-04T01:02:11.348Z,86.71
2023-05-04T01:04:38.686Z,87.00
2023-05-04T01:07:27.074Z,86.38
2023-05-04T01:10:02.208Z,86.74
2023-05-04T01:12:39.137Z,86.18
2023-05-04T01:15:09.322Z,86.43
2023-05-04T01:17:36.887Z,87.01
2023-05-04T01:20:05.004Z,87.44
2023-05-04T01:22:32.786Z,88.12
2023-05-04T01:25:00.233Z,88.74
2023-05-04T01:27:42.717Z,88.29
2023-05-04T01:30:36.037Z,88.73
2023-05-04T01:33:04.827Z,88.76
2023-05-04T01:35:32.240Z,87.89
2023-05-04T01:38:00.000Z,87.52
2023-05-04T01:40:27.376Z,87.38
2023-05-04T01:42:54.926Z,87.47
2023-05-04T01:45:22.670Z,87.72
2023-05-04T01:47:50.102Z,88.05
2023-05-04T01:50:17.508Z,88.17
2023-05-04T01:52:44.932Z,87.45
2023-05-04T01:55:12.309Z,87.58
2023-05-04T01:57:39.727Z,86.79
2023-05-04T02:00:08.079Z,86.82
2023-05-04T02:02:45.372Z,87.20
2023-05-04T02:05:17.269Z,87.25
2023-05-04T02:07:44.633Z,87.71
2023-05-04T02:10:12.160Z,87.83
2023-05-04T02:12:39.660Z,88.50
2023-05-04T02:15:07.530Z,88.32
2023-05-04T02:17:34.993Z,88.65
2023-05-04T02:20:04.679Z,87.80
2023-05-04T02:22:32.600Z,88.00
2023-05-04T02:24:59.989Z,86.19
2023-05-04T02:27:27.409Z,86.39
2023-05-04T02:29:54.837Z,86.53
2023-05-04T02:32:22.203Z,83.19
2023-05-04T02:34:50.948Z,81.57
2023-05-04T02:37:18.502Z,79.09
2023-05-04T02:39:45.963Z,78.98
2023-05-04T02:42:14.236Z,78.97
2023-05-04T02:44:41.932Z,79.36
2023-05-04T02:47:10.116Z,81.05
2023-05-04T02:49:37.538Z,81.25
2023-05-04T02:52:04.949Z,82.67
2023-05-04T02:54:32.291Z,82.50
2023-05-04T02:56:59.684Z,82.33
2023-05-04T02:59:27.074Z,82.18
2023-05-04T03:01:54.576Z,82.71
2023-05-04T03:04:22.053Z,82.51
2023-05-04T03:07:15.192Z,82.97
2023-05-04T03:09:43.490Z,82.91
2023-05-04T03:12:11.594Z,83.83
2023-05-04T03:14:40.305Z,82.64
2023-05-04T03:17:08.283Z,83.75
2023-05-04T03:19:36.488Z,84.90
2023-05-04T03:22:04.723Z,86.44
2023-05-04T03:24:35.169Z,87.71
2023-05-04T03:27:02.710Z,88.20
2023-05-04T03:29:30.047Z,88.58
2023-05-04T03:32:01.048Z,90.57
2023-05-04T03:34:35.463Z,91.65
2023-05-04T03:37:06.666Z,92.55
2023-05-04T03:39:34.201Z,92.08
2023-05-04T03:42:01.504Z,91.76
2023-05-04T03:44:36.298Z,91.66
2023-05-04T03:47:03.725Z,91.96
2023-05-04T03:49:35.054Z,91.38
2023-05-04T03:52:02.546Z,91.67
2023-05-04T03:54:30.119Z,91.67
2023-05-04T03:56:57.776Z,92.19
2023-05-04T03:59:25.609Z,92.17
2023-05-04T04:01:53.695Z,91.70
2023-05-04T04:04:21.605Z,90.89
2023-05-04T04:06:49.246Z,89.64
2023-05-04T04:09:16.624Z,89.99
2023-05-04T04:11:44.084Z,89.57
2023-05-04T04:14:11.815Z,89.50
2023-05-04T04:16:39.202Z,89.39
2023-05-04T04:19:07.673Z,88.93
2023-05-04T04:21:35.227Z,88.80
2023-05-04T04:24:02.707Z,88.77
2023-05-04T04:26:30.262Z,88.53
2023-05-04T04:28:57.775Z,88.10
2023-05-04T04:31:25.504Z,88.97
2023-05-04T04:33:52.913Z,88.79
2023-05-04T04:36:20.810Z,88.71
2023-05-04T04:38:48.398Z,88.81
2023-05-04T04:41:16.583Z,88.48
2023-05-04T04:43:44.216Z,88.61
2023-05-04T04:46:11.785Z,88.91
2023-05-04T04:48:39.194Z,89.43
2023-05-04T04:51:10.334Z,88.98
2023-05-04T04:53:38.365Z,89.26
2023-05-04T04:56:07.908Z,89.28
2023-05-04T04:58:35.681Z,89.27
2023-05-04T05:01:08.227Z,89.55
2023-05-04T05:03:36.200Z,88.41
2023-05-04T05:06:04.118Z,88.10
2023-05-04T05:08:32.909Z,86.66
2023-05-04T05:11:00.299Z,86.37
2023-05-04T05:13:27.618Z,86.79
2023-05-04T05:15:54.980Z,88.22
2023-05-04T05:18:22.352Z,88.51
2023-05-04T05:20:49.783Z,86.67
2023-05-04T05:23:17.556Z,86.44
2023-05-04T05:25:44.908Z,86.81
2023-05-04T05:28:14.070Z,87.12
2023-05-04T05:30:41.438Z,86.61
2023-05-04T05:33:09.025Z,86.73
2023-05-04T05:35:36.499Z,86.62
2023-05-04T05:38:03.944Z,87.22
2023-05-04T05:40:31.365Z,87.86
2023-05-04T05:42:58.800Z,88.08
2023-05-04T05:45:26.460Z,87.35
2023-05-04T05:47:53.910Z,87.32
2023-05-04T05:50:23.695Z,87.57
2023-05-04T05:52:51.249Z,86.85
2023-05-04T05:55:18.649Z,86.09
2023-05-04T05:57:46.028Z,85.63
2023-05-04T06:00:14.080Z,85.75
2023-05-04T06:02:42.778Z,86.52
2023-05-04T06:05:10.917Z,86.54
2023-05-04T06:07:38.313Z,86.58
2023-05-04T06:10:06.216Z,86.14
2023-05-04T06:12:33.932Z,85.57
2023-05-04T06:15:01.547Z,84.62
2023-05-04T06:17:30.611Z,83.96
2023-05-04T06:19:57.997Z,83.55
2023-05-04T06:22:25.376Z,82.95
2023-05-04T06:24:55.683Z,82.99
2023-05-04T06:27:26.026Z,82.56
2023-05-04T06:29:53.399Z,80.50
2023-05-04T06:32:20.855Z,79.58
2023-05-04T06:34:48.199Z,77.86
2023-05-04T06:37:16.227Z,77.01
2023-05-04T06:39:43.622Z,75.15
2023-05-04T06:42:12.243Z,75.54
2023-05-04T06:44:41.436Z,73.22
2023-05-04T06:47:08.845Z,72.70
2023-05-04T06:49:36.451Z,71.77
2023-05-04T06:52:03.996Z,69.62
2023-05-04T06:54:31.921Z,69.85
2023-05-04T06:56:59.228Z,65.44
2023-05-04T06:59:26.743Z,63.94
2023-05-04T07:01:54.116Z,62.45
2023-05-04T07:04:23.388Z,63.67
2023-05-04T07:06:51.227Z,60.98
2023-05-04T07:09:20.248Z,61.04
2023-05-04T07:11:48.690Z,57.65
2023-05-04T07:14:16.543Z,59.33
2023-05-04T07:16:44.089Z,57.61
2023-05-04T07:19:11.589Z,58.43
2023-05-04T07:21:39.051Z,58.34
2023-05-04T07:24:07.440Z,57.74
2023-05-04T07:26:34.806Z,57.91
2023-05-04T07:29:02.215Z,57.79
2023-05-04T07:31:30.549Z,57.03
2023-05-04T07:33:58.271Z,56.97
2023-05-04T07:36:26.741Z,55.47
2023-05-04T07:38:54.477Z,55.86
2023-05-04T07:41:22.119Z,54.80
2023-05-04T07:43:49.524Z,54.98
2023-05-04T07:46:17.187Z,54.64
2023-05-04T07:48:44.587Z,53.35
2023-05-04T07:51:16.308Z,53.12
2023-05-04T07:53:43.873Z,53.75
2023-05-04T07:56:12.820Z,54.12
2023-05-04T07:58:40.537Z,54.57
2023-05-04T08:01:08.034Z,53.32
2023-05-04T08:03:35.490Z,51.33
2023-05-04T08:06:02.865Z,52.67
2023-05-04T08:08:30.765Z,53.00
2023-05-04T08:11:11.714Z,53.09
2023-05-04T08:13:40.519Z,51.53
2023-05-04T08:16:09.552Z,51.58
2023-05-04T08:18:37.249Z,52.25
2023-05-04T08:21:05.057Z,50.14
2023-05-04T08:23:33.633Z,49.30
2023-05-04T08:26:04.946Z,49.64
2023-05-04T08:28:37.844Z,49.67
2023-05-04T08:31:05.409Z,50.03
2023-05-04T08:33:33.532Z,50.41
2023-05-04T08:36:00.995Z,50.23
2023-05-04T08:38:29.872Z,50.16
2023-05-04T08:40:57.603Z,49.60
2023-05-04T08:43:24.929Z,48.97
2023-05-04T08:45:52.746Z,49.61
2023-05-04T08:48:20.202Z,50.32
2023-05-04T08:50:48.490Z,47.68
2023-05-04T08:53:19.095Z,48.08
2023-05-04T08:55:47.702Z,48.01
2023-05-04T08:58:17.476Z,47.71
2023-05-04T09:00:45.927Z,45.06
2023-05-04T09:03:14.911Z,44.84
2023-05-04T09:05:42.645Z,46.41
2023-05-04T09:08:10.053Z,46.69
2023-05-04T09:10:37.622Z,46.34
2023-05-04T09:13:05.273Z,45.94
2023-05-04T09:15:33.148Z,47.43
2023-05-04T09:18:09.941Z,45.99
2023-05-04T09:20:45.314Z,45.10
2023-05-04T09:23:14.290Z,44.42
2023-05-04T09:25:52.086Z,45.44
2023-05-04T09:28:21.642Z,45.05
2023-05-04T09:30:49.214Z,43.26
2023-05-04T09:33:17.049Z,42.76
2023-05-04T09:35:44.666Z,41.99
2023-05-04T09:38:12.073Z,43.63
2023-05-04T09:40:42.157Z,45.03
2023-05-04T09:43:10.899Z,44.63
2023-05-04T09:45:43.889Z,42.47
2023-05-04T09:48:22.138Z,45.42
2023-05-04T09:50:51.369Z,45.11
2023-05-04T09:53:22.097Z,44.68
2023-05-04T09:56:12.494Z,45.33
2023-05-04T09:58:40.701Z,45.31
2023-05-04T10:01:09.133Z,46.37
2023-05-04T10:03:36.641Z,44.14
2023-05-04T10:06:09.191Z,45.19
2023-05-04T10:08:37.420Z,45.75
2023-05-04T10:11:05.421Z,46.69
2023-05-04T10:13:32.803Z,46.09
2023-05-04T10:16:12.561Z,44.50
2023-05-04T10:18:55.057Z,43.94
2023-05-04T10:21:26.198Z,44.97
2023-05-04T10:24:16.606Z,45.53
2023-05-04T10:27:09.784Z,45.40
2023-05-04T10:29:38.215Z,44.77
2023-05-04T10:32:08.005Z,44.48
2023-05-04T10:34:35.679Z,43.06
2023-05-04T10:37:04.188Z,44.30
2023-05-04T10:39:34.196Z,45.49
2023-05-04T10:42:03.857Z,45.08
2023-05-04T10:44:55.044Z,44.88
2023-05-04T10:47:32.600Z,44.16
2023-05-04T10:50:08.406Z,44.13
2023-05-04T10:52:49.635Z,44.72
2023-05-04T10:55:18.211Z,44.05
2023-05-04T10:57:54.829Z,44.96
2023-05-04T11:00:23.078Z,43.00
2023-05-04T11:02:50.767Z,43.11
2023-05-04T11:05:20.191Z,43.05
2023-05-04T11:07:53.133Z,43.59
2023-05-04T11:10:26.257Z,44.60
2023-05-04T11:12:55.867Z,45.13
2023-05-04T11:15:23.289Z,45.14
2023-05-04T11:17:52.565Z,44.70
2023-05-04T11:20:20.745Z,44.41
2023-05-04T11:22:48.997Z,43.66
2023-05-04T11:25:17.240Z,46.07
2023-05-04T11:27:44.636Z,46.41
2023-05-04T11:30:12.612Z,45.95
2023-05-04T11:32:46.716Z,45.51
2023-05-04T11:35:40.443Z,45.70
2023-05-04T11:38:08.307Z,45.20
2023-05-04T11:40:37.232Z,44.40
2023-05-04T11:43:04.909Z,45.58
2023-05-04T11:45:36.543Z,45.04
2023-05-04T11:48:05.212Z,44.85
2023-05-04T11:50:32.731Z,45.74
2023-05-04T11:53:13.892Z,44.28
2023-05-04T11:55:42.095Z,44.64
2023-05-04T11:58:11.551Z,45.82
2023-05-04T12:00:49.732Z,45.44
2023-05-04T12:03:27.846Z,46.13
2023-05-04T12:06:03.538Z,46.32
2023-05-04T12:08:33.918Z,45.42
2023-05-04T12:11:20.526Z,45.73
2023-05-04T12:13:49.894Z,46.20
2023-05-04T12:16:21.020Z,46.58
2023-05-04T12:18:48.520Z,46.03
2023-05-04T12:21:18.638Z,46.03
2023-05-04T12:23:47.001Z,46.32
2023-05-04T12:26:17.299Z,45.92
2023-05-04T12:28:46.285Z,45.05
2023-05-04T12:31:13.692Z,45.05
2023-05-04T12:33:41.085Z,45.13
2023-05-04T12:36:08.880Z,46.60
2023-05-04T12:38:37.891Z,47.68
2023-05-04T12:41:07.515Z,47.56
2023-05-04T12:43:34.901Z,47.36
2023-05-04T12:46:02.448Z,47.89
2023-05-04T12:48:33.080Z,48.47
2023-05-04T12:51:01.589Z,48.88
2023-05-04T12:53:31.597Z,47.88
2023-05-04T12:56:00.369Z,47.65
2023-05-04T12:58:28.361Z,48.17
2023-05-04T13:00:56.709Z,46.54
2023-05-04T13:03:24.356Z,44.11
2023-05-04T13:05:52.407Z,45.55
2023-05-04T13:08:20.021Z,46.31
2023-05-04T13:10:47.983Z,47.70
2023-05-04T13:13:17.781Z,46.88
2023-05-04T13:15:45.535Z,46.90
2023-05-04T13:18:13.256Z,47.07
2023-05-04T13:20:40.998Z,47.63
2023-05-04T13:23:08.384Z,47.13
2023-05-04T13:25:35.784Z,47.07
2023-05-04T13:28:03.491Z,47.03
2023-05-04T13:30:30.987Z,46.09
2023-05-04T13:32:58.469Z,46.19
2023-05-04T13:35:26.122Z,46.60
2023-05-04T13:37:53.605Z,45.11
2023-05-04T13:40:21.038Z,44.88
2023-05-04T13:42:48.392Z,45.77
2023-05-04T13:45:15.804Z,45.26
2023-05-04T13:47:44.096Z,46.41
2023-05-04T13:50:11.496Z,46.40
2023-05-04T13:52:38.846Z,46.20
2023-05-04T13:55:06.836Z,47.49
2023-05-04T13:57:34.319Z,47.33
2023-05-04T14:00:07.915Z,46.86
2023-05-04T14:02:38.690Z,46.53
2023-05-04T14:05:07.783Z,46.79
2023-05-04T14:07:35.869Z,45.35
2023-05-04T14:10:03.972Z,45.69
2023-05-04T14:12:32.358Z,46.49
2023-05-04T14:15:00.905Z,46.36
2023-05-04T14:17:28.257Z,47.03
2023-05-04T14:19:56.195Z,47.93
2023-05-04T14:22:23.524Z,47.96
2023-05-04T14:24:51.198Z,47.19
2023-05-04T14:27:18.539Z,47.73
2023-05-04T14:29:47.779Z,46.38
2023-05-04T14:32:15.664Z,47.24
2023-05-04T14:34:43.048Z,47.27
2023-05-04T14:37:10.680Z,46.21
2023-05-04T14:39:39.473Z,45.89
2023-05-04T14:42:06.871Z,45.35
2023-05-04T14:44:34.251Z,46.42
2023-05-04T14:47:04.821Z,46.20
2023-05-04T14:49:37.161Z,47.13
2023-05-04T14:52:05.140Z,46.99
2023-05-04T14:54:32.576Z,47.29
2023-05-04T14:57:00.203Z,47.76
2023-05-04T14:59:27.673Z,46.95
2023-05-04T15:01:55.764Z,47.41
2023-05-04T15:04:23.216Z,48.33
2023-05-04T15:06:52.268Z,48.16
2023-05-04T15:09:26.628Z,47.79
2023-05-04T15:11:54.279Z,48.26
2023-05-04T15:14:21.954Z,46.51
2023-05-04T15:16:49.359Z,45.87
2023-05-04T15:19:16.753Z,46.45
2023-05-04T15:21:44.144Z,45.33
2023-05-04T15:24:11.577Z,46.20
2023-05-04T15:26:39.045Z,47.48
2023-05-04T15:29:06.799Z,47.66
2023-05-04T15:31:34.171Z,48.08
2023-05-04T15:34:01.882Z,48.27
2023-05-04T15:36:31.722Z,47.46
2023-05-04T15:38:59.133Z,47.57
2023-05-04T15:41:27.560Z,47.84
2023-05-04T15:43:55.367Z,47.76
2023-05-04T15:46:22.858Z,47.60
2023-05-04T15:48:50.335Z,48.59
2023-05-04T15:51:18.831Z,48.76
2023-05-04T15:53:46.777Z,47.16
2023-05-04T15:56:15.510Z,47.59
2023-05-04T15:58:45.034Z,48.03
2023-05-04T16:01:14.645Z,49.02
2023-05-04T16:03:43.223Z,49.09
2023-05-04T16:06:35.894Z,48.86
2023-05-04T16:09:03.241Z,48.40
2023-05-04T16:11:30.700Z,48.19
2023-05-04T16:13:58.041Z,48.20
2023-05-04T16:16:26.487Z,48.64
2023-05-04T16:18:53.845Z,48.03
2023-05-04T16:21:21.343Z,47.92
2023-05-04T16:23:48.850Z,47.96
2023-05-04T16:26:16.664Z,48.54
2023-05-04T16:28:45.313Z,48.71
2023-05-04T16:31:12.939Z,48.10
2023-05-04T16:33:47.123Z,48.06
2023-05-04T16:36:15.320Z,48.21
2023-05-04T16:38:42.696Z,48.38
2023-05-04T16:41:10.184Z,47.06
2023-05-04T16:43:37.539Z,47.65
2023-05-04T16:46:05.031Z,47.27
2023-05-04T16:48:32.518Z,46.89
2023-05-04T16:50:59.924Z,46.70
2023-05-04T16:53:27.671Z,47.19
2023-05-04T16:55:54.987Z,47.04
2023-05-04T16:58:22.455Z,47.73
2023-05-04T17:00:49.812Z,48.86
2023-05-04T17:03:17.330Z,48.89
2023-05-04T17:05:44.827Z,49.45
2023-05-04T17:08:12.665Z,49.30
2023-05-04T17:10:40.183Z,49.71
2023-05-04T17:13:07.685Z,50.17
2023-05-04T17:15:35.123Z,50.64
2023-05-04T17:18:02.507Z,50.68
2023-05-04T17:20:32.080Z,51.01
2023-05-04T17:22:59.980Z,51.26
2023-05-04T17:25:27.653Z,51.66
2023-05-04T17:27:55.385Z,51.86
2023-05-04T17:30:23.019Z,51.26
2023-05-04T17:32:51.261Z,51.45
2023-05-04T17:35:26.511Z,51.93
2023-05-04T17:37:57.884Z,52.88
2023-05-04T17:40:27.745Z,52.66
2023-05-04T17:42:56.112Z,52.86
2023-05-04T17:45:23.846Z,52.68
2023-05-04T17:47:51.991Z,52.81
2023-05-04T17:50:20.044Z,52.60
2023-05-04T17:52:58.121Z,52.66
2023-05-04T17:55:25.774Z,51.85
2023-05-04T17:57:54.271Z,51.86
2023-05-04T18:00:22.293Z,52.31
2023-05-04T18:02:49.758Z,52.77
2023-05-04T18:05:17.261Z,53.07
2023-05-04T18:07:44.678Z,53.25
2023-05-04T18:10:12.093Z,53.74
2023-05-04T18:12:39.605Z,52.97
2023-05-04T18:15:09.052Z,53.47
2023-05-04T18:17:37.990Z,54.30
2023-05-04T18:20:08.276Z,53.58
2023-05-04T18:22:36.121Z,53.91
2023-05-04T18:25:03.842Z,54.44
2023-05-04T18:27:33.402Z,55.47
2023-05-04T18:30:01.639Z,55.61
2023-05-04T18:32:29.351Z,55.92
2023-05-04T18:34:57.995Z,56.19
2023-05-04T18:37:25.644Z,56.54
2023-05-04T18:39:53.061Z,57.02
2023-05-04T18:42:20.509Z,57.41
2023-05-04T18:44:47.944Z,57.25
2023-05-04T18:47:15.280Z,57.61
2023-05-04T18:49:44.393Z,57.63
2023-05-04T18:52:11.795Z,57.85
2023-05-04T18:54:39.122Z,57.88
2023-05-04T18:57:06.843Z,58.13
2023-05-04T18:59:35.038Z,58.02
2023-05-04T19:02:02.661Z,58.20
2023-05-04T19:04:30.076Z,58.13
2023-05-04T19:06:58.134Z,58.12
2023-05-04T19:09:25.739Z,57.95
2023-05-04T19:11:53.129Z,58.39
2023-05-04T19:14:21.622Z,58.37
2023-05-04T19:16:48.997Z,58.45
2023-05-04T19:19:16.465Z,58.23
2023-05-04T19:21:44.039Z,58.16
2023-05-04T19:24:11.457Z,57.98
2023-05-04T19:26:39.744Z,58.49
2023-05-04T19:29:07.105Z,58.49
2023-05-04T19:31:34.608Z,58.94
2023-05-04T19:34:02.114Z,59.30
2023-05-04T19:39:21.799Z,59.86
2023-05-04T19:41:49.212Z,60.15
2023-05-04T19:44:16.533Z,60.69
2023-05-04T19:46:45.436Z,61.06
2023-05-04T19:49:12.921Z,61.66
2023-05-04T19:51:40.235Z,62.13
2023-05-04T19:54:09.229Z,62.39
2023-05-04T19:56:37.883Z,62.67
2023-05-04T19:59:05.243Z,63.16
2023-05-04T20:01:32.864Z,63.21
2023-05-04T20:04:00.255Z,63.70
2023-05-04T20:06:27.839Z,63.67
2023-05-04T20:08:55.420Z,63.87
2023-05-04T20:11:23.282Z,63.95
2023-05-04T20:13:51.713Z,64.49
2023-05-04T20:16:20.835Z,65.47
2023-05-04T20:18:48.265Z,65.75
2023-05-04T20:21:15.739Z,64.59
2023-05-04T20:23:43.600Z,64.88
2023-05-04T20:26:11.119Z,64.64
2023-05-04T20:28:38.934Z,65.01
2023-05-04T20:31:07.579Z,65.26
2023-05-04T20:33:36.077Z,65.60
2023-05-04T20:36:06.131Z,66.04
2023-05-04T20:38:33.646Z,65.99
2023-05-04T20:41:10.247Z,66.24
2023-05-04T20:43:37.780Z,66.46
2023-05-04T20:46:05.123Z,66.80
2023-05-04T20:48:32.632Z,67.14
2023-05-04T20:51:12.744Z,67.10
2023-05-04T20:53:41.522Z,67.55
2023-05-04T20:56:09.092Z,67.49
2023-05-04T20:58:36.467Z,67.91
2023-05-04T21:01:04.795Z,67.73
2023-05-04T21:03:32.625Z,68.12
2023-05-04T21:06:01.499Z,68.34
2023-05-04T21:08:29.377Z,68.21
2023-05-04T21:10:56.741Z,68.39
2023-05-04T21:13:24.370Z,68.35
2023-05-04T21:15:51.906Z,68.48
2023-05-04T21:18:19.735Z,68.19
2023-05-04T21:20:47.594Z,68.30
2023-05-04T21:23:14.990Z,68.20
2023-05-04T21:25:42.378Z,68.08
2023-05-04T21:28:09.884Z,68.51
2023-05-04T21:30:41.734Z,69.37
2023-05-04T21:33:09.059Z,69.74
2023-05-04T21:35:36.433Z,70.08
2023-05-04T21:38:03.844Z,70.37
2023-05-04T21:40:31.710Z,70.93
2023-05-04T21:42:59.735Z,71.34
2023-05-04T21:45:27.395Z,71.88
2023-05-04T21:47:54.784Z,71.59
2023-05-04T21:50:50.005Z,71.28
2023-05-04T21:53:17.613Z,71.12
2023-05-04T21:55:45.179Z,71.21
2023-05-04T21:58:12.742Z,71.34
2023-05-04T22:00:45.703Z,71.66
2023-05-04T22:03:13.315Z,72.15
2023-05-04T22:05:41.119Z,72.50
2023-05-04T22:08:08.853Z,72.23
2023-05-04T22:10:36.689Z,72.50
2023-05-04T22:13:04.291Z,72.72
2023-05-04T22:15:42.064Z,71.89
2023-05-04T22:18:16.821Z,72.07
2023-05-04T22:20:44.786Z,72.04
2023-05-04T22:23:13.025Z,72.09
2023-05-04T22:25:40.606Z,72.49
2023-05-04T22:28:08.180Z,72.42
2023-05-04T22:30:36.153Z,72.75
2023-05-04T22:33:03.785Z,73.15
2023-05-04T22:35:31.711Z,73.49
2023-05-04T22:37:59.535Z,73.14
2023-05-04T22:40:27.142Z,73.40
2023-05-04T22:42:54.676Z,73.62
2023-05-04T22:45:22.212Z,73.94
2023-05-04T22:47:49.808Z,74.97
2023-05-04T22:50:17.554Z,74.60
2023-05-04T22:52:45.287Z,75.51
2023-05-04T22:55:12.991Z,76.08
2023-05-04T22:57:40.631Z,76.51
2023-05-04T23:00:09.324Z,76.82
2023-05-04T23:02:37.309Z,76.21
2023-05-04T23:05:06.045Z,76.71
2023-05-04T23:07:33.912Z,77.82
2023-05-04T23:10:01.919Z,78.04
2023-05-04T23:12:54.656Z,78.26
2023-05-04T23:15:24.439Z,77.36
2023-05-04T23:17:52.100Z,78.23
2023-05-04T23:20:19.699Z,78.43
2023-05-04T23:22:47.330Z,78.66
2023-05-04T23:25:14.884Z,79.18
2023-05-04T23:27:42.533Z,79.63
2023-05-04T23:30:10.403Z,79.88
2023-05-04T23:32:38.245Z,80.69
2023-05-04T23:35:30.408Z,80.67
2023-05-04T23:37:58.158Z,81.04
2023-05-04T23:40:25.804Z,79.87
2023-05-04T23:42:53.343Z,80.30
2023-05-04T23:45:20.973Z,81.23
2023-05-04T23:47:48.721Z,82.03
2023-05-04T23:50:16.473Z,82.03
2023-05-04T23:52:44.770Z,81.77
2023-05-04T23:55:12.406Z,81.91
2023-05-04T23:57:43.108Z,81.83
